sensor_id;sensor_type;location;lat;lon;timestamp;P1;durP1;ratioP1;P2;durP2;ratioP2
57615;SDS011;43816;52.054;-9.494;2023-07-13T00:00:10;1.02;;;0.98;;
57615;SDS011;43816;52.054;-9.494;2023-07-13T00:00:21;1.05;;;0.90;;
57615;SDS011;43816;52.054;-9.494;2023-07-13T00:00:31;0.97;;;0.87;;
57615;SDS011;43816;52.054;-9.494;2023-07-13T00:00:42;1.00;;;0.90;;
57615;SDS011;43816;52.054;-9.494;2023-07-13T00:00:52;0.85;;;0.82;;
57615;SDS011;43816;52.054;-9.494;2023-07-13T00:01:03;1.07;;;0.90;;
57615;SDS011;43816;52.054;-9.494;2023-07-13T00:01:14;1.20;;;0.90;;
57615;SDS011;43816;52.054;-9.494;2023-07-13T00:01:25;1.52;;;1.00;;
57615;SDS011;43816;52.054;-9.494;2023-07-13T00:01:35;1.50;;;1.10;;
57615;SDS011;43816;52.054;-9.494;2023-07-13T00:01:46;1.50;;;1.10;;
57615;SDS011;43816;52.054;-9.494;2023-07-13T00:01:56;1.17;;;1.08;;
57615;SDS011;43816;52.054;-9.494;2023-07-13T00:02:07;1.20;;;1.10;;
57615;SDS011;43816;52.054;-9.494;2023-07-13T00:02:18;1.13;;;1.02;;
57615;SDS011;43816;52.054;-9.494;2023-07-13T00:02:28;1.10;;;1.00;;
57615;SDS011;43816;52.054;-9.494;2023-07-13T00:02:39;0.90;;;0.90;;
57615;SDS011;43816;52.054;-9.494;2023-07-13T00:02:49;0.87;;;0.87;;
57615;SDS011;43816;52.054;-9.494;2023-07-13T00:02:59;0.93;;;0.87;;
57615;SDS011;43816;52.054;-9.494;2023-07-13T00:03:09;1.00;;;0.90;;
57615;SDS011;43816;52.054;-9.494;2023-07-13T00:03:20;0.93;;;0.90;;
57615;SDS011;43816;52.054;-9.494;2023-07-13T00:03:30;1.00;;;0.90;;
57615;SDS011;43816;52.054;-9.494;2023-07-13T00:03:40;1.10;;;1.00;;
57615;SDS011;43816;52.054;-9.494;2023-07-13T00:03:51;1.00;;;0.90;;
57615;SDS011;43816;52.054;-9.494;2023-07-13T00:04:01;1.00;;;0.90;;
57615;SDS011;43816;52.054;-9.494;2023-07-13T00:04:11;1.00;;;0.90;;
57615;SDS011;43816;52.054;-9.494;2023-07-13T00:04:24;1.23;;;1.00;;
57615;SDS011;43816;52.054;-9.494;2023-07-13T00:04:35;1.33;;;1.02;;
57615;SDS011;43816;52.054;-9.494;2023-07-13T00:04:45;1.33;;;1.07;;
57615;SDS011;43816;52.054;-9.494;2023-07-13T00:04:56;1.10;;;0.93;;
57615;SDS011;43816;52.054;-9.494;2023-07-13T00:05:06;1.10;;;1.00;;
57615;SDS011;43816;52.054;-9.494;2023-07-13T00:05:17;1.20;;;1.00;;
57615;SDS011;43816;52.054;-9.494;2023-07-13T00:05:27;1.30;;;1.00;;
57615;SDS011;43816;52.054;-9.494;2023-07-13T00:05:38;1.40;;;1.00;;
57615;SDS011;43816;52.054;-9.494;2023-07-13T00:05:57;1.10;;;0.90;;
57615;SDS011;43816;52.054;-9.494;2023-07-13T00:06:08;1.35;;;1.02;;
57615;SDS011;43816;52.054;-9.494;2023-07-13T00:06:19;1.40;;;1.10;;
57615;SDS011;43816;52.054;-9.494;2023-07-13T00:06:29;1.25;;;1.10;;
57615;SDS011;43816;52.054;-9.494;2023-07-13T00:06:39;1.00;;;0.93;;
57615;SDS011;43816;52.054;-9.494;2023-07-13T00:06:49;0.90;;;0.90;;
57615;SDS011;43816;52.054;-9.494;2023-07-13T00:07:00;1.00;;;0.90;;
57615;SDS011;43816;52.054;-9.494;2023-07-13T00:07:10;1.27;;;0.97;;
57615;SDS011;43816;52.054;-9.494;2023-07-13T00:07:21;1.30;;;1.00;;
57615;SDS011;43816;52.054;-9.494;2023-07-13T00:07:31;1.37;;;0.93;;
57615;SDS011;43816;52.054;-9.494;2023-07-13T00:07:41;1.27;;;0.90;;
57615;SDS011;43816;52.054;-9.494;2023-07-13T00:07:52;1.10;;;0.90;;
57615;SDS011;43816;52.054;-9.494;2023-07-13T00:08:02;1.23;;;0.90;;
57615;SDS011;43816;52.054;-9.494;2023-07-13T00:08:13;1.00;;;0.90;;
57615;SDS011;43816;52.054;-9.494;2023-07-13T00:08:23;1.10;;;0.83;;
57615;SDS011;43816;52.054;-9.494;2023-07-13T00:08:34;1.13;;;0.90;;
57615;SDS011;43816;52.054;-9.494;2023-07-13T00:08:44;1.10;;;1.00;;
57615;SDS011;43816;52.054;-9.494;2023-07-13T00:08:55;0.93;;;0.88;;
57615;SDS011;43816;52.054;-9.494;2023-07-13T00:09:05;0.80;;;0.80;;
57615;SDS011;43816;52.054;-9.494;2023-07-13T00:09:16;0.90;;;0.90;;
57615;SDS011;43816;52.054;-9.494;2023-07-13T00:09:27;1.17;;;1.08;;
57615;SDS011;43816;52.054;-9.494;2023-07-13T00:09:37;1.20;;;1.10;;
57615;SDS011;43816;52.054;-9.494;2023-07-13T00:09:47;1.13;;;1.03;;
57615;SDS011;43816;52.054;-9.494;2023-07-13T00:09:58;0.90;;;0.90;;
57615;SDS011;43816;52.054;-9.494;2023-07-13T00:10:08;0.97;;;0.90;;
57615;SDS011;43816;52.054;-9.494;2023-07-13T00:10:19;0.95;;;0.95;;
57615;SDS011;43816;52.054;-9.494;2023-07-13T00:10:30;1.08;;;1.00;;
57615;SDS011;43816;52.054;-9.494;2023-07-13T00:10:40;0.90;;;0.90;;
57615;SDS011;43816;52.054;-9.494;2023-07-13T00:10:51;1.48;;;1.02;;
57615;SDS011;43816;52.054;-9.494;2023-07-13T00:11:02;1.83;;;1.10;;
57615;SDS011;43816;52.054;-9.494;2023-07-13T00:11:13;1.95;;;1.10;;
57615;SDS011;43816;52.054;-9.494;2023-07-13T00:11:23;1.25;;;1.10;;
57615;SDS011;43816;52.054;-9.494;2023-07-13T00:11:34;1.07;;;0.97;;
57615;SDS011;43816;52.054;-9.494;2023-07-13T00:11:44;1.10;;;1.00;;
57615;SDS011;43816;52.054;-9.494;2023-07-13T00:11:56;0.90;;;0.90;;
57615;SDS011;43816;52.054;-9.494;2023-07-13T00:12:21;1.05;;;1.00;;
57615;SDS011;43816;52.054;-9.494;2023-07-13T00:12:35;1.15;;;1.02;;
57615;SDS011;43816;52.054;-9.494;2023-07-13T00:12:46;1.10;;;1.00;;
57615;SDS011;43816;52.054;-9.494;2023-07-13T00:12:57;1.33;;;1.10;;
57615;SDS011;43816;52.054;-9.494;2023-07-13T00:13:07;1.52;;;1.00;;
57615;SDS011;43816;52.054;-9.494;2023-07-13T00:13:18;1.50;;;1.08;;
57615;SDS011;43816;52.054;-9.494;2023-07-13T00:13:29;1.43;;;1.00;;
57615;SDS011;43816;52.054;-9.494;2023-07-13T00:13:40;1.40;;;1.00;;
57615;SDS011;43816;52.054;-9.494;2023-07-13T00:13:51;1.45;;;1.00;;
57615;SDS011;43816;52.054;-9.494;2023-07-13T00:14:01;1.10;;;1.00;;
57615;SDS011;43816;52.054;-9.494;2023-07-13T00:14:12;1.13;;;1.03;;
57615;SDS011;43816;52.054;-9.494;2023-07-13T00:14:22;1.00;;;0.93;;
57615;SDS011;43816;52.054;-9.494;2023-07-13T00:14:34;1.05;;;1.00;;
57615;SDS011;43816;52.054;-9.494;2023-07-13T00:14:44;1.10;;;1.00;;
57615;SDS011;43816;52.054;-9.494;2023-07-13T00:14:58;1.10;;;1.00;;
57615;SDS011;43816;52.054;-9.494;2023-07-13T00:15:14;1.10;;;1.00;;
57615;SDS011;43816;52.054;-9.494;2023-07-13T00:15:27;1.10;;;1.00;;
57615;SDS011;43816;52.054;-9.494;2023-07-13T00:15:37;1.13;;;1.00;;
57615;SDS011;43816;52.054;-9.494;2023-07-13T00:15:48;1.10;;;1.00;;
57615;SDS011;43816;52.054;-9.494;2023-07-13T00:15:58;1.08;;;0.98;;
57615;SDS011;43816;52.054;-9.494;2023-07-13T00:16:09;1.10;;;0.90;;
57615;SDS011;43816;52.054;-9.494;2023-07-13T00:16:20;1.42;;;1.00;;
57615;SDS011;43816;52.054;-9.494;2023-07-13T00:16:42;1.35;;;0.90;;
57615;SDS011;43816;52.054;-9.494;2023-07-13T00:16:53;0.85;;;0.80;;
57615;SDS011;43816;52.054;-9.494;2023-07-13T00:17:03;1.00;;;0.90;;
57615;SDS011;43816;52.054;-9.494;2023-07-13T00:17:14;0.90;;;0.90;;
57615;SDS011;43816;52.054;-9.494;2023-07-13T00:17:24;1.20;;;1.10;;
57615;SDS011;43816;52.054;-9.494;2023-07-13T00:17:35;1.20;;;1.05;;
57615;SDS011;43816;52.054;-9.494;2023-07-13T00:17:45;1.30;;;1.00;;
57615;SDS011;43816;52.054;-9.494;2023-07-13T00:17:55;1.00;;;0.90;;
57615;SDS011;43816;52.054;-9.494;2023-07-13T00:18:05;1.03;;;0.90;;
57615;SDS011;43816;52.054;-9.494;2023-07-13T00:18:16;1.13;;;1.00;;
57615;SDS011;43816;52.054;-9.494;2023-07-13T00:18:26;1.20;;;1.10;;
57615;SDS011;43816;52.054;-9.494;2023-07-13T00:18:36;1.20;;;1.10;;
57615;SDS011;43816;52.054;-9.494;2023-07-13T00:18:47;1.10;;;1.00;;
57615;SDS011;43816;52.054;-9.494;2023-07-13T00:18:57;1.10;;;1.00;;
57615;SDS011;43816;52.054;-9.494;2023-07-13T00:19:08;1.02;;;0.95;;
57615;SDS011;43816;52.054;-9.494;2023-07-13T00:19:18;1.00;;;0.90;;
57615;SDS011;43816;52.054;-9.494;2023-07-13T00:19:28;1.10;;;1.00;;
57615;SDS011;43816;52.054;-9.494;2023-07-13T00:19:38;1.00;;;0.90;;
57615;SDS011;43816;52.054;-9.494;2023-07-13T00:19:49;1.10;;;1.00;;
57615;SDS011;43816;52.054;-9.494;2023-07-13T00:19:59;0.83;;;0.80;;
57615;SDS011;43816;52.054;-9.494;2023-07-13T00:20:10;1.00;;;0.90;;
57615;SDS011;43816;52.054;-9.494;2023-07-13T00:20:21;0.98;;;0.88;;
57615;SDS011;43816;52.054;-9.494;2023-07-13T00:20:33;0.80;;;0.80;;
57615;SDS011;43816;52.054;-9.494;2023-07-13T00:20:44;0.90;;;0.90;;
57615;SDS011;43816;52.054;-9.494;2023-07-13T00:20:54;1.00;;;0.97;;
57615;SDS011;43816;52.054;-9.494;2023-07-13T00:21:04;1.10;;;1.00;;
57615;SDS011;43816;52.054;-9.494;2023-07-13T00:21:15;1.30;;;1.00;;
57615;SDS011;43816;52.054;-9.494;2023-07-13T00:21:25;1.33;;;1.00;;
57615;SDS011;43816;52.054;-9.494;2023-07-13T00:21:36;1.17;;;1.00;;
57615;SDS011;43816;52.054;-9.494;2023-07-13T00:21:46;1.00;;;0.90;;
57615;SDS011;43816;52.054;-9.494;2023-07-13T00:21:57;0.90;;;0.90;;
57615;SDS011;43816;52.054;-9.494;2023-07-13T00:22:07;0.93;;;0.90;;
57615;SDS011;43816;52.054;-9.494;2023-07-13T00:22:18;1.08;;;1.00;;
57615;SDS011;43816;52.054;-9.494;2023-07-13T00:22:29;1.10;;;1.00;;
57615;SDS011;43816;52.054;-9.494;2023-07-13T00:22:39;1.23;;;1.13;;
57615;SDS011;43816;52.054;-9.494;2023-07-13T00:22:49;1.20;;;1.10;;
57615;SDS011;43816;52.054;-9.494;2023-07-13T00:22:59;1.20;;;1.10;;
57615;SDS011;43816;52.054;-9.494;2023-07-13T00:23:10;1.10;;;1.00;;
57615;SDS011;43816;52.054;-9.494;2023-07-13T00:23:20;1.20;;;1.08;;
57615;SDS011;43816;52.054;-9.494;2023-07-13T00:23:34;1.17;;;1.00;;
57615;SDS011;43816;52.054;-9.494;2023-07-13T00:23:45;1.30;;;1.10;;
57615;SDS011;43816;52.054;-9.494;2023-07-13T00:23:55;1.10;;;1.00;;
57615;SDS011;43816;52.054;-9.494;2023-07-13T00:24:06;1.37;;;1.13;;
57615;SDS011;43816;52.054;-9.494;2023-07-13T00:24:18;1.50;;;1.17;;
57615;SDS011;43816;52.054;-9.494;2023-07-13T00:24:28;1.50;;;1.15;;
57615;SDS011;43816;52.054;-9.494;2023-07-13T00:24:38;1.33;;;1.00;;
57615;SDS011;43816;52.054;-9.494;2023-07-13T00:24:49;1.20;;;1.00;;
57615;SDS011;43816;52.054;-9.494;2023-07-13T00:24:59;1.15;;;1.00;;
57615;SDS011;43816;52.054;-9.494;2023-07-13T00:25:12;1.00;;;1.00;;
57615;SDS011;43816;52.054;-9.494;2023-07-13T00:25:23;1.02;;;0.95;;
57615;SDS011;43816;52.054;-9.494;2023-07-13T00:25:35;1.10;;;0.90;;
57615;SDS011;43816;52.054;-9.494;2023-07-13T00:25:45;1.10;;;0.90;;
57615;SDS011;43816;52.054;-9.494;2023-07-13T00:25:55;1.03;;;0.90;;
57615;SDS011;43816;52.054;-9.494;2023-07-13T00:26:07;1.10;;;0.90;;
57615;SDS011;43816;52.054;-9.494;2023-07-13T00:26:18;1.13;;;1.00;;
57615;SDS011;43816;52.054;-9.494;2023-07-13T00:26:29;1.20;;;1.10;;
57615;SDS011;43816;52.054;-9.494;2023-07-13T00:26:39;1.20;;;1.10;;
57615;SDS011;43816;52.054;-9.494;2023-07-13T00:26:50;1.17;;;1.00;;
57615;SDS011;43816;52.054;-9.494;2023-07-13T00:27:01;1.30;;;1.00;;
57615;SDS011;43816;52.054;-9.494;2023-07-13T00:27:12;1.20;;;1.00;;
57615;SDS011;43816;52.054;-9.494;2023-07-13T00:27:23;1.30;;;1.20;;
57615;SDS011;43816;52.054;-9.494;2023-07-13T00:27:34;1.30;;;1.20;;
57615;SDS011;43816;52.054;-9.494;2023-07-13T00:27:44;1.17;;;1.07;;
57615;SDS011;43816;52.054;-9.494;2023-07-13T00:27:56;1.10;;;1.00;;
57615;SDS011;43816;52.054;-9.494;2023-07-13T00:28:06;1.07;;;1.00;;
57615;SDS011;43816;52.054;-9.494;2023-07-13T00:28:17;1.20;;;1.10;;
57615;SDS011;43816;52.054;-9.494;2023-07-13T00:28:27;1.10;;;1.00;;
57615;SDS011;43816;52.054;-9.494;2023-07-13T00:28:37;1.00;;;1.00;;
57615;SDS011;43816;52.054;-9.494;2023-07-13T00:28:48;0.90;;;0.90;;
57615;SDS011;43816;52.054;-9.494;2023-07-13T00:28:58;0.97;;;0.87;;
57615;SDS011;43816;52.054;-9.494;2023-07-13T00:29:09;1.17;;;1.08;;
57615;SDS011;43816;52.054;-9.494;2023-07-13T00:29:19;1.30;;;1.20;;
57615;SDS011;43816;52.054;-9.494;2023-07-13T00:29:29;1.30;;;1.20;;
57615;SDS011;43816;52.054;-9.494;2023-07-13T00:29:39;1.23;;;1.10;;
57615;SDS011;43816;52.054;-9.494;2023-07-13T00:29:50;1.23;;;1.10;;
57615;SDS011;43816;52.054;-9.494;2023-07-13T00:30:00;1.20;;;1.10;;
57615;SDS011;43816;52.054;-9.494;2023-07-13T00:30:11;1.45;;;1.08;;
57615;SDS011;43816;52.054;-9.494;2023-07-13T00:30:21;1.47;;;1.10;;
57615;SDS011;43816;52.054;-9.494;2023-07-13T00:30:32;1.50;;;1.20;;
57615;SDS011;43816;52.054;-9.494;2023-07-13T00:30:42;1.53;;;1.17;;
57615;SDS011;43816;52.054;-9.494;2023-07-13T00:30:52;1.63;;;1.20;;
57615;SDS011;43816;52.054;-9.494;2023-07-13T00:31:03;1.60;;;1.10;;
57615;SDS011;43816;52.054;-9.494;2023-07-13T00:31:13;1.20;;;1.10;;
57615;SDS011;43816;52.054;-9.494;2023-07-13T00:31:24;1.10;;;1.00;;
57615;SDS011;43816;52.054;-9.494;2023-07-13T00:31:35;1.05;;;1.05;;
57615;SDS011;43816;52.054;-9.494;2023-07-13T00:31:45;1.20;;;1.10;;
57615;SDS011;43816;52.054;-9.494;2023-07-13T00:31:55;1.13;;;1.02;;
57615;SDS011;43816;52.054;-9.494;2023-07-13T00:32:06;1.53;;;1.10;;
57615;SDS011;43816;52.054;-9.494;2023-07-13T00:32:17;1.30;;;1.00;;
57615;SDS011;43816;52.054;-9.494;2023-07-13T00:32:27;1.10;;;0.95;;
57615;SDS011;43816;52.054;-9.494;2023-07-13T00:32:38;1.07;;;0.97;;
57615;SDS011;43816;52.054;-9.494;2023-07-13T00:32:48;1.47;;;1.10;;
57615;SDS011;43816;52.054;-9.494;2023-07-13T00:32:59;1.80;;;1.20;;
57615;SDS011;43816;52.054;-9.494;2023-07-13T00:33:09;1.97;;;1.20;;
57615;SDS011;43816;52.054;-9.494;2023-07-13T00:33:19;1.57;;;1.13;;
57615;SDS011;43816;52.054;-9.494;2023-07-13T00:33:30;1.40;;;1.00;;
57615;SDS011;43816;52.054;-9.494;2023-07-13T00:33:41;1.30;;;1.00;;
57615;SDS011;43816;52.054;-9.494;2023-07-13T00:33:51;1.42;;;1.08;;
57615;SDS011;43816;52.054;-9.494;2023-07-13T00:34:02;1.23;;;1.10;;
57615;SDS011;43816;52.054;-9.494;2023-07-13T00:34:12;1.20;;;1.10;;
57615;SDS011;43816;52.054;-9.494;2023-07-13T00:34:23;1.00;;;1.00;;
57615;SDS011;43816;52.054;-9.494;2023-07-13T00:34:33;1.17;;;1.00;;
57615;SDS011;43816;52.054;-9.494;2023-07-13T00:34:43;1.47;;;1.10;;
57615;SDS011;43816;52.054;-9.494;2023-07-13T00:34:54;1.70;;;1.10;;
57615;SDS011;43816;52.054;-9.494;2023-07-13T00:35:04;1.38;;;1.02;;
57615;SDS011;43816;52.054;-9.494;2023-07-13T00:35:15;1.20;;;0.97;;
57615;SDS011;43816;52.054;-9.494;2023-07-13T00:35:25;1.40;;;1.17;;
57615;SDS011;43816;52.054;-9.494;2023-07-13T00:35:36;1.43;;;1.20;;
57615;SDS011;43816;52.054;-9.494;2023-07-13T00:35:46;1.25;;;1.15;;
57615;SDS011;43816;52.054;-9.494;2023-07-13T00:35:56;0.87;;;0.87;;
57615;SDS011;43816;52.054;-9.494;2023-07-13T00:36:07;0.90;;;0.90;;
57615;SDS011;43816;52.054;-9.494;2023-07-13T00:36:19;0.90;;;0.90;;
57615;SDS011;43816;52.054;-9.494;2023-07-13T00:36:30;1.00;;;1.00;;
57615;SDS011;43816;52.054;-9.494;2023-07-13T00:36:40;1.08;;;1.00;;
57615;SDS011;43816;52.054;-9.494;2023-07-13T00:36:51;1.10;;;1.00;;
57615;SDS011;43816;52.054;-9.494;2023-07-13T00:37:01;1.27;;;1.00;;
57615;SDS011;43816;52.054;-9.494;2023-07-13T00:37:11;1.50;;;1.17;;
57615;SDS011;43816;52.054;-9.494;2023-07-13T00:37:22;1.52;;;1.15;;
57615;SDS011;43816;52.054;-9.494;2023-07-13T00:37:32;1.20;;;1.10;;
57615;SDS011;43816;52.054;-9.494;2023-07-13T00:37:42;0.90;;;0.90;;
57615;SDS011;43816;52.054;-9.494;2023-07-13T00:37:53;0.95;;;0.90;;
57615;SDS011;43816;52.054;-9.494;2023-07-13T00:38:03;1.00;;;0.90;;
57615;SDS011;43816;52.054;-9.494;2023-07-13T00:38:14;1.00;;;0.80;;
57615;SDS011;43816;52.054;-9.494;2023-07-13T00:38:24;1.07;;;0.87;;
57615;SDS011;43816;52.054;-9.494;2023-07-13T00:38:35;1.25;;;1.10;;
57615;SDS011;43816;52.054;-9.494;2023-07-13T00:38:46;1.50;;;1.23;;
57615;SDS011;43816;52.054;-9.494;2023-07-13T00:38:57;1.30;;;1.20;;
57615;SDS011;43816;52.054;-9.494;2023-07-13T00:39:07;1.20;;;1.10;;
57615;SDS011;43816;52.054;-9.494;2023-07-13T00:39:18;1.20;;;1.10;;
57615;SDS011;43816;52.054;-9.494;2023-07-13T00:39:28;1.10;;;1.00;;
57615;SDS011;43816;52.054;-9.494;2023-07-13T00:39:39;1.00;;;0.90;;
57615;SDS011;43816;52.054;-9.494;2023-07-13T00:39:49;1.00;;;0.90;;
57615;SDS011;43816;52.054;-9.494;2023-07-13T00:39:59;1.17;;;1.03;;
57615;SDS011;43816;52.054;-9.494;2023-07-13T00:40:10;1.25;;;1.15;;
57615;SDS011;43816;52.054;-9.494;2023-07-13T00:40:22;1.13;;;1.02;;
57615;SDS011;43816;52.054;-9.494;2023-07-13T00:40:33;1.10;;;1.00;;
57615;SDS011;43816;52.054;-9.494;2023-07-13T00:40:43;1.10;;;0.93;;
57615;SDS011;43816;52.054;-9.494;2023-07-13T00:40:53;1.52;;;1.08;;
57615;SDS011;43816;52.054;-9.494;2023-07-13T00:41:04;1.30;;;1.10;;
57615;SDS011;43816;52.054;-9.494;2023-07-13T00:41:14;1.20;;;1.10;;
57615;SDS011;43816;52.054;-9.494;2023-07-13T00:41:24;0.90;;;0.90;;
57615;SDS011;43816;52.054;-9.494;2023-07-13T00:41:35;0.90;;;0.90;;
57615;SDS011;43816;52.054;-9.494;2023-07-13T00:41:45;0.90;;;0.90;;
57615;SDS011;43816;52.054;-9.494;2023-07-13T00:41:56;1.07;;;0.97;;
57615;SDS011;43816;52.054;-9.494;2023-07-13T00:42:06;1.10;;;1.00;;
57615;SDS011;43816;52.054;-9.494;2023-07-13T00:42:16;1.10;;;1.00;;
57615;SDS011;43816;52.054;-9.494;2023-07-13T00:42:27;0.97;;;0.87;;
57615;SDS011;43816;52.054;-9.494;2023-07-13T00:42:37;1.00;;;0.90;;
57615;SDS011;43816;52.054;-9.494;2023-07-13T00:42:47;1.05;;;0.95;;
57615;SDS011;43816;52.054;-9.494;2023-07-13T00:42:58;1.10;;;1.00;;
57615;SDS011;43816;52.054;-9.494;2023-07-13T00:43:12;1.10;;;1.00;;
57615;SDS011;43816;52.054;-9.494;2023-07-13T00:43:25;1.10;;;1.00;;
57615;SDS011;43816;52.054;-9.494;2023-07-13T00:43:37;1.02;;;0.95;;
57615;SDS011;43816;52.054;-9.494;2023-07-13T00:43:47;1.10;;;1.00;;
57615;SDS011;43816;52.054;-9.494;2023-07-13T00:43:57;1.33;;;1.10;;
57615;SDS011;43816;52.054;-9.494;2023-07-13T00:44:12;1.20;;;1.03;;
57615;SDS011;43816;52.054;-9.494;2023-07-13T00:44:24;1.30;;;1.02;;
57615;SDS011;43816;52.054;-9.494;2023-07-13T00:44:34;1.45;;;1.10;;
57615;SDS011;43816;52.054;-9.494;2023-07-13T00:45:01;1.52;;;1.20;;
57615;SDS011;43816;52.054;-9.494;2023-07-13T00:46:38;1.20;;;1.10;;
57615;SDS011;43816;52.054;-9.494;2023-07-13T00:46:46;1.30;;;1.07;;
57615;SDS011;43816;52.054;-9.494;2023-07-13T00:46:49;1.10;;;1.00;;
57615;SDS011;43816;52.054;-9.494;2023-07-13T00:46:59;0.87;;;0.87;;
57615;SDS011;43816;52.054;-9.494;2023-07-13T00:47:10;0.80;;;0.80;;
57615;SDS011;43816;52.054;-9.494;2023-07-13T00:47:20;0.90;;;0.80;;
57615;SDS011;43816;52.054;-9.494;2023-07-13T00:47:30;1.10;;;1.00;;
57615;SDS011;43816;52.054;-9.494;2023-07-13T00:47:40;1.10;;;1.00;;
57615;SDS011;43816;52.054;-9.494;2023-07-13T00:47:51;1.10;;;1.10;;
57615;SDS011;43816;52.054;-9.494;2023-07-13T00:48:01;1.17;;;1.07;;
57615;SDS011;43816;52.054;-9.494;2023-07-13T00:48:13;1.30;;;1.20;;
57615;SDS011;43816;52.054;-9.494;2023-07-13T00:48:32;1.35;;;1.17;;
57615;SDS011;43816;52.054;-9.494;2023-07-13T00:48:47;1.20;;;1.10;;
57615;SDS011;43816;52.054;-9.494;2023-07-13T00:49:00;1.30;;;1.20;;
57615;SDS011;43816;52.054;-9.494;2023-07-13T00:49:14;1.30;;;1.20;;
57615;SDS011;43816;52.054;-9.494;2023-07-13T00:49:27;1.20;;;1.10;;
57615;SDS011;43816;52.054;-9.494;2023-07-13T00:49:40;1.10;;;1.00;;
57615;SDS011;43816;52.054;-9.494;2023-07-13T00:49:50;0.95;;;0.90;;
57615;SDS011;43816;52.054;-9.494;2023-07-13T00:50:01;0.83;;;0.80;;
57615;SDS011;43816;52.054;-9.494;2023-07-13T00:50:14;1.10;;;0.90;;
57615;SDS011;43816;52.054;-9.494;2023-07-13T00:50:26;1.05;;;0.93;;
57615;SDS011;43816;52.054;-9.494;2023-07-13T00:50:36;1.00;;;1.00;;
57615;SDS011;43816;52.054;-9.494;2023-07-13T00:50:48;1.10;;;1.00;;
57615;SDS011;43816;52.054;-9.494;2023-07-13T00:51:01;1.20;;;1.00;;
57615;SDS011;43816;52.054;-9.494;2023-07-13T00:51:12;1.27;;;1.07;;
57615;SDS011;43816;52.054;-9.494;2023-07-13T00:51:27;1.30;;;1.20;;
57615;SDS011;43816;52.054;-9.494;2023-07-13T00:51:43;1.30;;;1.20;;
57615;SDS011;43816;52.054;-9.494;2023-07-13T00:52:02;1.45;;;1.00;;
57615;SDS011;43816;52.054;-9.494;2023-07-13T00:52:15;1.52;;;1.02;;
57615;SDS011;43816;52.054;-9.494;2023-07-13T00:52:26;1.37;;;1.10;;
57615;SDS011;43816;52.054;-9.494;2023-07-13T00:52:37;1.25;;;1.10;;
57615;SDS011;43816;52.054;-9.494;2023-07-13T00:52:50;1.17;;;1.00;;
57615;SDS011;43816;52.054;-9.494;2023-07-13T00:53:03;1.27;;;1.10;;
57615;SDS011;43816;52.054;-9.494;2023-07-13T00:53:14;1.53;;;1.20;;
57615;SDS011;43816;52.054;-9.494;2023-07-13T00:53:25;1.50;;;1.20;;
57615;SDS011;43816;52.054;-9.494;2023-07-13T00:53:37;1.63;;;1.10;;
57615;SDS011;43816;52.054;-9.494;2023-07-13T00:53:47;1.60;;;1.00;;
57615;SDS011;43816;52.054;-9.494;2023-07-13T00:53:58;1.50;;;1.00;;
57615;SDS011;43816;52.054;-9.494;2023-07-13T00:54:20;1.23;;;1.00;;
57615;SDS011;43816;52.054;-9.494;2023-07-13T00:54:38;1.20;;;1.10;;
57615;SDS011;43816;52.054;-9.494;2023-07-13T00:54:51;1.23;;;1.10;;
57615;SDS011;43816;52.054;-9.494;2023-07-13T00:55:01;1.20;;;1.10;;
57615;SDS011;43816;52.054;-9.494;2023-07-13T00:55:12;1.27;;;1.10;;
57615;SDS011;43816;52.054;-9.494;2023-07-13T00:55:24;1.23;;;1.02;;
57615;SDS011;43816;52.054;-9.494;2023-07-13T00:55:34;1.10;;;1.00;;
57615;SDS011;43816;52.054;-9.494;2023-07-13T00:55:46;0.98;;;0.90;;
57615;SDS011;43816;52.054;-9.494;2023-07-13T00:55:59;1.13;;;1.02;;
57615;SDS011;43816;52.054;-9.494;2023-07-13T00:56:11;1.30;;;1.20;;
57615;SDS011;43816;52.054;-9.494;2023-07-13T00:56:21;1.27;;;1.17;;
57615;SDS011;43816;52.054;-9.494;2023-07-13T00:56:32;1.27;;;1.17;;
57615;SDS011;43816;52.054;-9.494;2023-07-13T00:56:44;1.25;;;1.00;;
57615;SDS011;43816;52.054;-9.494;2023-07-13T00:56:58;1.20;;;1.00;;
57615;SDS011;43816;52.054;-9.494;2023-07-13T00:57:12;1.13;;;1.00;;
57615;SDS011;43816;52.054;-9.494;2023-07-13T00:57:26;1.08;;;0.90;;
57615;SDS011;43816;52.054;-9.494;2023-07-13T00:57:37;1.10;;;1.00;;
57615;SDS011;43816;52.054;-9.494;2023-07-13T00:57:47;1.10;;;1.00;;
57615;SDS011;43816;52.054;-9.494;2023-07-13T00:57:57;1.40;;;1.10;;
57615;SDS011;43816;52.054;-9.494;2023-07-13T00:58:08;1.37;;;1.07;;
57615;SDS011;43816;52.054;-9.494;2023-07-13T00:58:19;1.23;;;1.10;;
57615;SDS011;43816;52.054;-9.494;2023-07-13T00:58:29;1.20;;;1.10;;
57615;SDS011;43816;52.054;-9.494;2023-07-13T00:58:40;1.50;;;1.20;;
57615;SDS011;43816;52.054;-9.494;2023-07-13T00:58:50;1.60;;;1.10;;
57615;SDS011;43816;52.054;-9.494;2023-07-13T00:59:03;1.70;;;1.13;;
57615;SDS011;43816;52.054;-9.494;2023-07-13T00:59:16;1.13;;;1.00;;
57615;SDS011;43816;52.054;-9.494;2023-07-13T00:59:28;1.23;;;1.10;;
57615;SDS011;43816;52.054;-9.494;2023-07-13T00:59:41;1.30;;;1.05;;
57615;SDS011;43816;52.054;-9.494;2023-07-13T00:59:56;1.55;;;1.00;;
57615;SDS011;43816;52.054;-9.494;2023-07-13T01:00:09;1.25;;;0.90;;
57615;SDS011;43816;52.054;-9.494;2023-07-13T01:00:20;0.90;;;0.90;;
57615;SDS011;43816;52.054;-9.494;2023-07-13T01:00:33;1.15;;;1.05;;
57615;SDS011;43816;52.054;-9.494;2023-07-13T01:00:45;1.40;;;1.10;;
57615;SDS011;43816;52.054;-9.494;2023-07-13T01:00:58;1.30;;;1.00;;
57615;SDS011;43816;52.054;-9.494;2023-07-13T01:01:08;1.50;;;1.10;;
57615;SDS011;43816;52.054;-9.494;2023-07-13T01:01:19;1.43;;;1.20;;
57615;SDS011;43816;52.054;-9.494;2023-07-13T01:01:29;1.50;;;1.30;;
57615;SDS011;43816;52.054;-9.494;2023-07-13T01:01:39;1.20;;;1.10;;
57615;SDS011;43816;52.054;-9.494;2023-07-13T01:01:50;1.20;;;0.97;;
57615;SDS011;43816;52.054;-9.494;2023-07-13T01:02:01;1.10;;;0.90;;
57615;SDS011;43816;52.054;-9.494;2023-07-13T01:02:12;1.65;;;1.00;;
57615;SDS011;43816;52.054;-9.494;2023-07-13T01:02:22;1.60;;;1.05;;
57615;SDS011;43816;52.054;-9.494;2023-07-13T01:02:38;1.10;;;1.00;;
57615;SDS011;43816;52.054;-9.494;2023-07-13T01:02:50;1.08;;;0.98;;
57615;SDS011;43816;52.054;-9.494;2023-07-13T01:03:00;1.10;;;1.00;;
57615;SDS011;43816;52.054;-9.494;2023-07-13T01:03:11;1.17;;;1.07;;
57615;SDS011;43816;52.054;-9.494;2023-07-13T01:03:21;1.02;;;1.00;;
57615;SDS011;43816;52.054;-9.494;2023-07-13T01:03:31;1.20;;;1.10;;
57615;SDS011;43816;52.054;-9.494;2023-07-13T01:03:42;1.23;;;1.13;;
57615;SDS011;43816;52.054;-9.494;2023-07-13T01:03:52;1.37;;;1.13;;
57615;SDS011;43816;52.054;-9.494;2023-07-13T01:04:03;1.17;;;1.00;;
57615;SDS011;43816;52.054;-9.494;2023-07-13T01:04:13;1.30;;;1.00;;
57615;SDS011;43816;52.054;-9.494;2023-07-13T01:04:24;1.20;;;1.10;;
57615;SDS011;43816;52.054;-9.494;2023-07-13T01:04:35;1.20;;;1.10;;
57615;SDS011;43816;52.054;-9.494;2023-07-13T01:04:46;1.20;;;1.10;;
57615;SDS011;43816;52.054;-9.494;2023-07-13T01:04:56;1.20;;;1.10;;
57615;SDS011;43816;52.054;-9.494;2023-07-13T01:05:10;1.23;;;1.07;;
57615;SDS011;43816;52.054;-9.494;2023-07-13T01:05:22;1.13;;;1.00;;
57615;SDS011;43816;52.054;-9.494;2023-07-13T01:05:34;1.17;;;1.08;;
57615;SDS011;43816;52.054;-9.494;2023-07-13T01:05:46;1.25;;;1.15;;
57615;SDS011;43816;52.054;-9.494;2023-07-13T01:05:58;1.10;;;1.00;;
57615;SDS011;43816;52.054;-9.494;2023-07-13T01:06:08;1.00;;;0.83;;
57615;SDS011;43816;52.054;-9.494;2023-07-13T01:06:19;1.00;;;0.80;;
57615;SDS011;43816;52.054;-9.494;2023-07-13T01:06:29;1.00;;;0.83;;
57615;SDS011;43816;52.054;-9.494;2023-07-13T01:06:40;0.98;;;0.90;;
57615;SDS011;43816;52.054;-9.494;2023-07-13T01:06:52;1.08;;;0.95;;
57615;SDS011;43816;52.054;-9.494;2023-07-13T01:07:02;1.20;;;1.10;;
57615;SDS011;43816;52.054;-9.494;2023-07-13T01:07:13;1.40;;;1.00;;
57615;SDS011;43816;52.054;-9.494;2023-07-13T01:07:23;1.17;;;1.00;;
57615;SDS011;43816;52.054;-9.494;2023-07-13T01:07:34;1.05;;;0.90;;